Terminal Aerodrome Forecast
Issued by NWS Cleveland, OH

Home | Current Version | Previous Version | Graphics & Text | Print | Product List | Glossary On
Versions: 1 2 3 4 5 6 7 8 9 10 11 12 13 14 15 16
000
FTUS41 KCLE 042000 AAA
TAFERI
TAF AMD
KERI 042043Z 0421/0518 28008KT P6SM SCT025 OVC035
     FM050200 31010G18KT P6SM OVC025
     FM050600 32008KT P6SM OVC035=

USA.gov is the U.S. government's official web portal to all federal, state and local government web resources and services.